logo
Search for airport 
image banner adimage banner adimage banner ad
image banner ad

LOKH - Friesach/Hirt

Located in District Sankt Veit An Der Glan, Austria

ICAO - LOKH, IATA -

Data provided by Airmate  

General information

Coordinates: N46°55'42" E14°26'0"
Elevation is 2019 feet MSL.
 
View others Airports in Carinthia

Operational data

Special qualification required
Current time UTC:
Current local time:
Weather at : LOWK - Klagenfurt ( 33 km )
METAR: LOWK 202350Z AUTO VRB02KT 9999 NCD 01/M03 Q1016
TAF: TAF LOWK 202315Z 2100/2124 VRB03KT 9999 FEW050 TX10/2113Z TN01/2104Z TEMPO 2110/2117 SHRA FEW055CB SCT060 PROB30 TEMPO 2112/2115 28015KT 4000 TSRA
View NOTAMs / SUP AIP / TFR affecting this airport [VIEW]
Communications frequencies: [VIEW]

Runways:

RWY identifierQFULength (ft)Width (ft)SurfaceLDA (ft)
17232098GRASS
35232098UNK

Airport contact information

Address: District Sankt Veit An Der Glan Austria

Satellite view of LOKH